Aidablu — IBWX — position and weather

sailwx.info

Track history (hours):
 
Tides and Currents Weather Stations Pressure Air Temp Water Temp Dewpoint Dewpoint Depression Visibility Wind Speed Wind Dir Waves Ship Positions

Aidablu

Last reported at 2017-Jul-24 08:19 UTC. Time now 2017-Jul-26 16:47 UTC.
Position N 43°17' E 014°52'.

Length 252 m; draft 7.3 m.

Type: Ship. MMSI: 247282500.

Date/timePositionNaut miles runAvg speedWind from/ knotsBaromVisibWave heightAir tempDewpointWater temp
2017-Jul-24 08:19N 43°17' E 014°52'612.0
2017-Jul-24 07:49N 43°22' E 014°47'412.4
2017-Jul-24 07:27N 43°26' E 014°44'612.5
2017-Jul-24 06:58N 43°31' E 014°39'612.5
2017-Jul-24 06:27N 43°36' E 014°34'612.4
2017-Jul-24 06:00N 43°40' E 014°29'612.6
2017-Jul-24 05:29N 43°45' E 014°23'612.6
2017-Jul-24 05:00N 43°50' E 014°18'612.8
2017-Jul-24 04:30N 43°55' E 014°13'712.9
2017-Jul-24 04:00N 44°00' E 014°08'713.1
2017-Jul-24 03:30N 44°06' E 014°02'713.2
2017-Jul-24 03:00N 44°11' E 013°57'613.1
2017-Jul-24 02:30N 44°17' E 013°52'713.0
2017-Jul-24 02:00N 44°22' E 013°47'713.3
2017-Jul-24 01:27N 44°28' E 013°42'613.4
2017-Jul-24 01:00N 44°33' E 013°37'713.5
2017-Jul-24 00:30N 44°39' E 013°32'713.5
2017-Jul-24 00:00N 44°45' E 013°27'713.3
2017-Jul-23 23:30N 44°50' E 013°21'613.0
2017-Jul-23 23:00N 44°55' E 013°16'612.8
2017-Jul-23 22:30N 45°00' E 013°10'612.7
2017-Jul-23 22:00N 45°05' E 013°04'612.7
2017-Jul-23 21:30N 45°09' E 012°57'612.5
2017-Jul-23 21:00N 45°14' E 012°51'612.4
2017-Jul-23 20:30N 45°17' E 012°44'612.5
2017-Jul-23 20:00N 45°20' E 012°36'612.0
2017-Jul-23 19:30N 45°23' E 012°29'5 9.2
2017-Jul-23 19:01N 45°26' E 012°24'3 5.2
2017-Jul-23 18:30N 45°26' E 012°20'1 2.2
2017-Jul-23 18:00N 45°26' E 012°19'0 0.0
2017-Jul-23 17:30N 45°26' E 012°19'0 0.0
2017-Jul-23 16:59N 45°26' E 012°19'0 0.0
2017-Jul-23 16:29N 45°26' E 012°19'0 0.0
2017-Jul-23 15:59N 45°26' E 012°19'0 0.0
2017-Jul-23 15:29N 45°26' E 012°19'0 0.0
2017-Jul-23 14:58N 45°26' E 012°19'0 0.0
2017-Jul-23 14:28N 45°26' E 012°19'0 0.0
2017-Jul-23 13:58N 45°26' E 012°19'0 0.0
2017-Jul-23 13:28N 45°26' E 012°19'0 0.0
2017-Jul-23 12:58N 45°26' E 012°19'0 0.0
2017-Jul-23 12:30N 45°26' E 012°19'0 0.0
2017-Jul-23 12:00N 45°26' E 012°19'0 0.0
2017-Jul-23 11:30N 45°26' E 012°19'0 0.0
2017-Jul-23 11:00N 45°26' E 012°19'0 0.0
2017-Jul-23 10:30N 45°26' E 012°19'0 0.0
2017-Jul-23 09:59N 45°26' E 012°19'0 0.0
2017-Jul-23 09:29N 45°26' E 012°19'0 0.0
2017-Jul-23 08:59N 45°26' E 012°19'0 0.0
2017-Jul-23 08:29N 45°26' E 012°19'0 0.0
2017-Jul-23 07:58N 45°26' E 012°19'0 0.0
2017-Jul-23 07:28N 45°26' E 012°19'0 0.0
2017-Jul-23 06:52N 45°26' E 012°19'0 0.0
2017-Jul-23 06:28N 45°26' E 012°19'0 0.0
2017-Jul-23 05:58N 45°26' E 012°19'0 0.0
2017-Jul-23 05:30N 45°26' E 012°19'0 0.0
2017-Jul-23 05:00N 45°26' E 012°19'0 0.0
2017-Jul-23 04:30N 45°26' E 012°19'0 0.0
2017-Jul-23 04:00N 45°26' E 012°19'0 0.0
2017-Jul-23 03:30N 45°26' E 012°19'0 0.0
2017-Jul-23 02:56N 45°26' E 012°19'0 0.1
2017-Jul-23 02:30N 45°26' E 012°19'1 1.1
2017-Jul-23 02:00N 45°26' E 012°19'3 5.1
2017-Jul-23 01:30N 45°26' E 012°23'4 8.4
2017-Jul-23 01:00N 45°24' E 012°28'511.0
2017-Jul-23 00:30N 45°21' E 012°35'713.4
2017-Jul-23 00:00N 45°18' E 012°43'4 7.3
2017-Jul-22 23:30N 45°16' E 012°48'3 6.7
2017-Jul-22 23:00N 45°14' E 012°51'4 7.6
2017-Jul-22 22:30N 45°11' E 012°55'613.0
2017-Jul-22 22:00N 45°06' E 013°01'713.0
2017-Jul-22 21:29N 45°03' E 013°09'713.4
2017-Jul-22 21:00N 44°59' E 013°17'713.1
2017-Jul-22 20:30N 44°55' E 013°24'713.4
2017-Jul-22 20:00N 44°49' E 013°29'713.4
2017-Jul-22 19:30N 44°44' E 013°34'713.1
2017-Jul-22 19:00N 44°38' E 013°39'713.0
2017-Jul-22 18:30N 44°33' E 013°44'813.3
2017-Jul-22 17:54N 44°26' E 013°50'513.4
2017-Jul-22 17:30N 44°22' E 013°54'713.2
2017-Jul-22 17:00N 44°16' E 013°59'713.1
2017-Jul-22 16:30N 44°10' E 014°04'713.1
2017-Jul-22 15:59N 44°05' E 014°09'613.1
2017-Jul-22 15:30N 43°60' E 014°14'25314.7
2017-Jul-21 22:22N 40°56' E 018°09'1017.2
2017-Jul-21 21:48N 40°50' E 018°19'617.0
2017-Jul-21 21:29N 40°46' E 018°24'816.7
2017-Jul-21 21:00N 40°40' E 018°32'816.6
2017-Jul-21 20:30N 40°34' E 018°39'816.3
2017-Jul-21 19:59N 40°29' E 018°47'816.4
2017-Jul-21 19:30N 40°23' E 018°55'916.0
2017-Jul-21 18:57N 40°18' E 019°05'20 0.9
2017-Jul-20 21:47N 40°31' E 018°44'413.7
2017-Jul-20 21:30N 40°33' E 018°40'279 5.6
2017-Jul-18 19:39N 44°09' E 014°40'216.5
2017-Jul-18 19:30N 44°10' E 014°38'816.7
2017-Jul-18 19:00N 44°17' E 014°31'710.8
2017-Jul-18 18:21N 44°22' E 014°39'716.5
2017-Jul-18 17:55N 44°18' E 014°48'17 1.2
2017-Jul-18 03:33N 44°25' E 014°26'112.9
2017-Jul-18 03:30N 44°26' E 014°25'712.8
2017-Jul-18 02:59N 44°28' E 014°16'612.8
2017-Jul-18 02:30N 44°31' E 014°09'612.9
2017-Jul-18 02:00N 44°34' E 014°01'713.3
2017-Jul-18 01:30N 44°37' E 013°52'713.4
2017-Jul-18 01:00N 44°40' E 013°44'612.3
2017-Jul-18 00:30N 44°39' E 013°36'611.4
2017-Jul-18 00:00N 44°42' E 013°29'713.6
2017-Jul-17 23:30N 44°48' E 013°24'713.6
2017-Jul-17 23:00N 44°54' E 013°18'713.5
2017-Jul-17 22:30N 44°59' E 013°12'713.2
2017-Jul-17 22:00N 45°03' E 013°05'713.3
2017-Jul-17 21:31N 45°08' E 012°59'713.5
2017-Jul-17 21:00N 45°13' E 012°52'713.2
2017-Jul-17 20:30N 45°17' E 012°45'713.3
2017-Jul-17 20:00N 45°20' E 012°37'612.9
2017-Jul-17 19:30N 45°23' E 012°29'5 9.8
2017-Jul-17 19:00N 45°26' E 012°23'3 5.4
2017-Jul-17 18:31N 45°26' E 012°19'1 1.3
2017-Jul-17 17:58N 45°26' E 012°18'0 0.0
2017-Jul-17 17:30N 45°26' E 012°18'0 0.0
2017-Jul-17 17:00N 45°26' E 012°18'0 0.0
2017-Jul-17 16:30N 45°26' E 012°18'0 0.0
2017-Jul-17 16:00N 45°26' E 012°18'0 0.0
2017-Jul-17 15:30N 45°26' E 012°18'0 0.0
2017-Jul-17 14:59N 45°26' E 012°18'0 0.0
2017-Jul-17 14:29N 45°26' E 012°18'0 0.0
2017-Jul-17 13:59N 45°26' E 012°18'0 0.0
2017-Jul-17 13:23N 45°26' E 012°18'0 0.0
2017-Jul-17 12:58N 45°26' E 012°18'0 0.0
2017-Jul-17 12:28N 45°26' E 012°18'0 0.0
2017-Jul-17 11:58N 45°26' E 012°18'0 0.0
2017-Jul-17 11:28N 45°26' E 012°18'0 0.0
2017-Jul-17 10:58N 45°26' E 012°18'0 0.0
2017-Jul-17 10:30N 45°26' E 012°18'0 0.0
2017-Jul-17 10:00N 45°26' E 012°18'0 0.0
2017-Jul-17 09:30N 45°26' E 012°18'0 0.0
2017-Jul-17 09:00N 45°26' E 012°18'0 0.0
2017-Jul-17 08:30N 45°26' E 012°18'0 0.0
2017-Jul-17 07:59N 45°26' E 012°18'0 0.0
2017-Jul-17 07:29N 45°26' E 012°18'0 0.0
2017-Jul-17 06:59N 45°26' E 012°18'0 0.0
2017-Jul-17 06:29N 45°26' E 012°18'0 0.0
2017-Jul-17 05:58N 45°26' E 012°18'0 0.0
2017-Jul-17 05:28N 45°26' E 012°18'0 0.0
2017-Jul-17 04:58N 45°26' E 012°18'0 0.0
2017-Jul-17 04:31N 45°26' E 012°18'1 1.9
2017-Jul-17 04:00N 45°26' E 012°19'2 4.9
2017-Jul-17 03:31N 45°26' E 012°23'5 9.6
2017-Jul-17 03:00N 45°24' E 012°29'612.1
2017-Jul-17 02:30N 45°24' E 012°38'5 8.9
2017-Jul-17 02:00N 45°24' E 012°44'4 7.4
2017-Jul-17 01:30N 45°25' E 012°49'3 6.4
2017-Jul-17 01:00N 45°22' E 012°52'4 7.5
2017-Jul-17 00:30N 45°19' E 012°52'4 7.7
2017-Jul-17 00:00N 45°15' E 012°52'4 7.0
2017-Jul-16 23:30N 45°12' E 012°49'4 7.2
2017-Jul-16 23:00N 45°10' E 012°45'3 6.9
2017-Jul-16 22:30N 45°08' E 012°41'3 6.8
2017-Jul-16 22:00N 45°09' E 012°36'3 7.0
2017-Jul-16 21:30N 45°11' E 012°32'3 6.7
2017-Jul-16 21:00N 45°14' E 012°30'3 7.0
2017-Jul-16 20:30N 45°17' E 012°27'3 7.0
2017-Jul-16 20:00N 45°19' E 012°23'5 9.9
2017-Jul-16 19:30N 45°21' E 012°17'4 8.2
2017-Jul-16 19:01N 45°25' E 012°16'2 4.5
2017-Jul-16 18:30N 45°27' E 012°15'0 0.9
2017-Jul-16 17:58N 45°27' E 012°15'0 0.0
2017-Jul-16 17:28N 45°27' E 012°15'0 0.0
2017-Jul-16 17:00N 45°27' E 012°15'0 0.0
2017-Jul-16 16:27N 45°27' E 012°15'0 0.0
2017-Jul-16 16:00N 45°27' E 012°15'0 0.0
2017-Jul-16 15:30N 45°27' E 012°15'0 0.0
2017-Jul-16 15:00N 45°27' E 012°15'0 0.0
2017-Jul-16 14:29N 45°27' E 012°15'0 0.0
2017-Jul-16 13:56N 45°27' E 012°15'0 0.0
2017-Jul-16 13:29N 45°27' E 012°15'0 0.0
2017-Jul-16 12:56N 45°27' E 012°15'0 0.0
2017-Jul-16 12:29N 45°27' E 012°15'0 0.0
2017-Jul-16 11:58N 45°27' E 012°15'0 0.0
2017-Jul-16 11:28N 45°27' E 012°15'0 0.0
2017-Jul-16 10:55N 45°27' E 012°15'0 0.0
2017-Jul-16 10:25N 45°27' E 012°15'0 0.0
2017-Jul-16 10:00N 45°27' E 012°15'0 0.0
2017-Jul-16 09:24N 45°27' E 012°15'0 0.0
2017-Jul-16 09:00N 45°27' E 012°15'0 0.0
2017-Jul-16 08:30N 45°27' E 012°15'0 0.0
2017-Jul-16 08:00N 45°27' E 012°15'0 0.0
2017-Jul-16 07:29N 45°27' E 012°15'0 0.0
2017-Jul-16 06:59N 45°27' E 012°15'0 0.0
2017-Jul-16 06:29N 45°27' E 012°15'0 0.0
2017-Jul-16 05:59N 45°27' E 012°15'0 0.0
2017-Jul-16 05:29N 45°27' E 012°15'0 0.0
2017-Jul-16 04:58N 45°27' E 012°15'0 0.0
2017-Jul-16 04:28N 45°27' E 012°15'0 0.0
2017-Jul-16 03:58N 45°27' E 012°15'0 0.0
2017-Jul-16 03:28N 45°27' E 012°15'0 0.0
2017-Jul-16 03:00N 45°27' E 012°15'0 0.0
2017-Jul-16 02:30N 45°27' E 012°15'0 0.0
2017-Jul-16 02:00N 45°27' E 012°15'0 0.0
2017-Jul-16 01:27N 45°27' E 012°15'0 0.0
2017-Jul-16 01:00N 45°27' E 012°15'0 0.0
2017-Jul-16 00:26N 45°27' E 012°15'0 0.0
2017-Jul-15 23:59N 45°27' E 012°15'0 0.0
2017-Jul-15 23:29N 45°27' E 012°15'0 0.0
2017-Jul-15 22:59N 45°27' E 012°15'0 0.0
2017-Jul-15 22:25N 45°27' E 012°15'0 0.0
2017-Jul-15 21:58N 45°27' E 012°15'0 0.0
2017-Jul-15 21:28N 45°27' E 012°15'0 0.0
2017-Jul-15 20:58N 45°27' E 012°15'0 0.0
2017-Jul-15 20:28N 45°27' E 012°15'0 0.0
2017-Jul-15 20:00N 45°27' E 012°15'0 0.0
2017-Jul-15 19:30N 45°27' E 012°15'0 0.0
2017-Jul-15 19:00N 45°27' E 012°15'0 0.0
2017-Jul-15 18:30N 45°27' E 012°15'0 0.0
2017-Jul-15 18:00N 45°27' E 012°15'0 0.0
2017-Jul-15 17:29N 45°27' E 012°15'0 0.0
2017-Jul-15 16:59N 45°27' E 012°15'0 0.0
2017-Jul-15 16:26N 45°27' E 012°15'0 0.0
2017-Jul-15 15:53N 45°27' E 012°15'0 0.0
2017-Jul-15 15:28N 45°27' E 012°15'0 0.0
2017-Jul-15 14:58N 45°27' E 012°15'0 0.0
2017-Jul-15 14:00N 45°27' E 012°15'1 1.8
2017-Jul-15 13:30N 45°26' E 012°16'4 8.2
2017-Jul-15 13:01N 45°22' E 012°15'4 8.8
2017-Jul-15 12:31N 45°20' E 012°21'3 6.8
2017-Jul-15 12:01N 45°19' E 012°25'4 8.7
2017-Jul-15 11:30N 45°18' E 012°31'3 5.7
2017-Jul-15 11:01N 45°17' E 012°35'2 3.9
2017-Jul-15 10:30N 45°19' E 012°36'2 4.9
2017-Jul-15 10:00N 45°22' E 012°35'4 8.9
2017-Jul-15 09:30N 45°26' E 012°37'1 2.8
2017-Jul-15 09:00N 45°25' E 012°36'3 5.4
2017-Jul-15 08:31N 45°24' E 012°32'1 2.0
2017-Jul-15 08:01N 45°25' E 012°32'2 3.3
2017-Jul-15 07:31N 45°25' E 012°30'2 3.4
2017-Jul-15 07:00N 45°24' E 012°32'2 4.7
2017-Jul-15 06:30N 45°25' E 012°29'2 4.4
2017-Jul-15 06:00N 45°24' E 012°32'2 3.3
2017-Jul-15 05:31N 45°24' E 012°30'1 1.4
2017-Jul-15 05:01N 45°25' E 012°30'1 1.1
2017-Jul-15 04:31N 45°24' E 012°31'1 1.6
2017-Jul-15 04:01N 45°24' E 012°30'5 9.3
2017-Jul-15 03:30N 45°20' E 012°32'612.3
2017-Jul-15 02:59N 45°14' E 012°37'713.7
2017-Jul-15 02:30N 45°10' E 012°44'713.6
2017-Jul-15 02:00N 45°07' E 012°53'713.6
2017-Jul-15 01:30N 45°04' E 013°01'713.4
2017-Jul-15 01:00N 45°01' E 013°10'713.8
2017-Jul-15 00:30N 44°58' E 013°19'613.0
2017-Jul-15 00:00N 44°53' E 013°25'4 8.0
2017-Jul-14 23:30N 44°50' E 013°28'4 7.9
2017-Jul-14 23:00N 44°47' E 013°31'4 7.8
2017-Jul-14 22:30N 44°43' E 013°34'611.7
2017-Jul-14 22:00N 44°38' E 013°39'613.0
2017-Jul-14 21:30N 44°35' E 013°46'713.4
2017-Jul-14 21:00N 44°33' E 013°55'913.6
2017-Jul-14 20:20N 44°30' E 014°07'  
Track history (hours):
 
Tides and Currents Weather Stations Pressure Air Temp Water Temp Dewpoint Dewpoint Depression Visibility Wind Speed Wind Dir Waves Ship Positions

Aidablu

Last reported at 2017-Jul-24 08:19 UTC. Time now 2017-Jul-26 16:47 UTC.
Position N 43°17' E 014°52'.

Length 252 m; draft 7.3 m.

Type: Ship. MMSI: 247282500.

Date/timePositionNaut miles runAvg speedWind from/ knotsBaromVisibWave heightAir tempDewpointWater temp
2017-Jul-24 08:19N 43°17' E 014°52'612.0
2017-Jul-24 07:49N 43°22' E 014°47'412.4
2017-Jul-24 07:27N 43°26' E 014°44'612.5
2017-Jul-24 06:58N 43°31' E 014°39'612.5
2017-Jul-24 06:27N 43°36' E 014°34'612.4
2017-Jul-24 06:00N 43°40' E 014°29'612.6
2017-Jul-24 05:29N 43°45' E 014°23'612.6
2017-Jul-24 05:00N 43°50' E 014°18'612.8
2017-Jul-24 04:30N 43°55' E 014°13'712.9
2017-Jul-24 04:00N 44°00' E 014°08'713.1
2017-Jul-24 03:30N 44°06' E 014°02'713.2
2017-Jul-24 03:00N 44°11' E 013°57'613.1
2017-Jul-24 02:30N 44°17' E 013°52'713.0
2017-Jul-24 02:00N 44°22' E 013°47'713.3
2017-Jul-24 01:27N 44°28' E 013°42'613.4
2017-Jul-24 01:00N 44°33' E 013°37'713.5
2017-Jul-24 00:30N 44°39' E 013°32'713.5
2017-Jul-24 00:00N 44°45' E 013°27'713.3
2017-Jul-23 23:30N 44°50' E 013°21'613.0
2017-Jul-23 23:00N 44°55' E 013°16'612.8
2017-Jul-23 22:30N 45°00' E 013°10'612.7
2017-Jul-23 22:00N 45°05' E 013°04'612.7
2017-Jul-23 21:30N 45°09' E 012°57'612.5
2017-Jul-23 21:00N 45°14' E 012°51'612.4
2017-Jul-23 20:30N 45°17' E 012°44'612.5
2017-Jul-23 20:00N 45°20' E 012°36'612.0
2017-Jul-23 19:30N 45°23' E 012°29'5 9.2
2017-Jul-23 19:01N 45°26' E 012°24'3 5.2
2017-Jul-23 18:30N 45°26' E 012°20'1 2.2
2017-Jul-23 18:00N 45°26' E 012°19'0 0.0
2017-Jul-23 17:30N 45°26' E 012°19'0 0.0
2017-Jul-23 16:59N 45°26' E 012°19'0 0.0
2017-Jul-23 16:29N 45°26' E 012°19'0 0.0
2017-Jul-23 15:59N 45°26' E 012°19'0 0.0
2017-Jul-23 15:29N 45°26' E 012°19'0 0.0
2017-Jul-23 14:58N 45°26' E 012°19'0 0.0
2017-Jul-23 14:28N 45°26' E 012°19'0 0.0
2017-Jul-23 13:58N 45°26' E 012°19'0 0.0
2017-Jul-23 13:28N 45°26' E 012°19'0 0.0
2017-Jul-23 12:58N 45°26' E 012°19'0 0.0
2017-Jul-23 12:30N 45°26' E 012°19'0 0.0
2017-Jul-23 12:00N 45°26' E 012°19'0 0.0
2017-Jul-23 11:30N 45°26' E 012°19'0 0.0
2017-Jul-23 11:00N 45°26' E 012°19'0 0.0
2017-Jul-23 10:30N 45°26' E 012°19'0 0.0
2017-Jul-23 09:59N 45°26' E 012°19'0 0.0
2017-Jul-23 09:29N 45°26' E 012°19'0 0.0
2017-Jul-23 08:59N 45°26' E 012°19'0 0.0
2017-Jul-23 08:29N 45°26' E 012°19'0 0.0
2017-Jul-23 07:58N 45°26' E 012°19'0 0.0
2017-Jul-23 07:28N 45°26' E 012°19'0 0.0
2017-Jul-23 06:52N 45°26' E 012°19'0 0.0
2017-Jul-23 06:28N 45°26' E 012°19'0 0.0
2017-Jul-23 05:58N 45°26' E 012°19'0 0.0
2017-Jul-23 05:30N 45°26' E 012°19'0 0.0
2017-Jul-23 05:00N 45°26' E 012°19'0 0.0
2017-Jul-23 04:30N 45°26' E 012°19'0 0.0
2017-Jul-23 04:00N 45°26' E 012°19'0 0.0
2017-Jul-23 03:30N 45°26' E 012°19'0 0.0
2017-Jul-23 02:56N 45°26' E 012°19'0 0.1
2017-Jul-23 02:30N 45°26' E 012°19'1 1.1
2017-Jul-23 02:00N 45°26' E 012°19'3 5.1
2017-Jul-23 01:30N 45°26' E 012°23'4 8.4
2017-Jul-23 01:00N 45°24' E 012°28'511.0
2017-Jul-23 00:30N 45°21' E 012°35'713.4
2017-Jul-23 00:00N 45°18' E 012°43'4 7.3
2017-Jul-22 23:30N 45°16' E 012°48'3 6.7
2017-Jul-22 23:00N 45°14' E 012°51'4 7.6
2017-Jul-22 22:30N 45°11' E 012°55'613.0
2017-Jul-22 22:00N 45°06' E 013°01'713.0
2017-Jul-22 21:29N 45°03' E 013°09'713.4
2017-Jul-22 21:00N 44°59' E 013°17'713.1
2017-Jul-22 20:30N 44°55' E 013°24'713.4
2017-Jul-22 20:00N 44°49' E 013°29'713.4
2017-Jul-22 19:30N 44°44' E 013°34'713.1
2017-Jul-22 19:00N 44°38' E 013°39'713.0
2017-Jul-22 18:30N 44°33' E 013°44'813.3
2017-Jul-22 17:54N 44°26' E 013°50'513.4
2017-Jul-22 17:30N 44°22' E 013°54'713.2
2017-Jul-22 17:00N 44°16' E 013°59'713.1
2017-Jul-22 16:30N 44°10' E 014°04'713.1
2017-Jul-22 15:59N 44°05' E 014°09'613.1
2017-Jul-22 15:30N 43°60' E 014°14'25314.7
2017-Jul-21 22:22N 40°56' E 018°09'1017.2
2017-Jul-21 21:48N 40°50' E 018°19'617.0
2017-Jul-21 21:29N 40°46' E 018°24'816.7
2017-Jul-21 21:00N 40°40' E 018°32'816.6
2017-Jul-21 20:30N 40°34' E 018°39'816.3
2017-Jul-21 19:59N 40°29' E 018°47'816.4
2017-Jul-21 19:30N 40°23' E 018°55'916.0
2017-Jul-21 18:57N 40°18' E 019°05'20 0.9
2017-Jul-20 21:47N 40°31' E 018°44'413.7
2017-Jul-20 21:30N 40°33' E 018°40'279 5.6
2017-Jul-18 19:39N 44°09' E 014°40'216.5
2017-Jul-18 19:30N 44°10' E 014°38'816.7
2017-Jul-18 19:00N 44°17' E 014°31'710.8
2017-Jul-18 18:21N 44°22' E 014°39'716.5
2017-Jul-18 17:55N 44°18' E 014°48'17 1.2
2017-Jul-18 03:33N 44°25' E 014°26'112.9
2017-Jul-18 03:30N 44°26' E 014°25'712.8
2017-Jul-18 02:59N 44°28' E 014°16'612.8
2017-Jul-18 02:30N 44°31' E 014°09'612.9
2017-Jul-18 02:00N 44°34' E 014°01'713.3
2017-Jul-18 01:30N 44°37' E 013°52'713.4
2017-Jul-18 01:00N 44°40' E 013°44'612.3
2017-Jul-18 00:30N 44°39' E 013°36'611.4
2017-Jul-18 00:00N 44°42' E 013°29'713.6
2017-Jul-17 23:30N 44°48' E 013°24'713.6
2017-Jul-17 23:00N 44°54' E 013°18'713.5
2017-Jul-17 22:30N 44°59' E 013°12'713.2
2017-Jul-17 22:00N 45°03' E 013°05'713.3
2017-Jul-17 21:31N 45°08' E 012°59'713.5
2017-Jul-17 21:00N 45°13' E 012°52'713.2
2017-Jul-17 20:30N 45°17' E 012°45'713.3
2017-Jul-17 20:00N 45°20' E 012°37'612.9
2017-Jul-17 19:30N 45°23' E 012°29'5 9.8
2017-Jul-17 19:00N 45°26' E 012°23'3 5.4
2017-Jul-17 18:31N 45°26' E 012°19'1 1.3
2017-Jul-17 17:58N 45°26' E 012°18'0 0.0
2017-Jul-17 17:30N 45°26' E 012°18'0 0.0
2017-Jul-17 17:00N 45°26' E 012°18'0 0.0
2017-Jul-17 16:30N 45°26' E 012°18'0 0.0
2017-Jul-17 16:00N 45°26' E 012°18'0 0.0
2017-Jul-17 15:30N 45°26' E 012°18'0 0.0
2017-Jul-17 14:59N 45°26' E 012°18'0 0.0
2017-Jul-17 14:29N 45°26' E 012°18'0 0.0
2017-Jul-17 13:59N 45°26' E 012°18'0 0.0
2017-Jul-17 13:23N 45°26' E 012°18'0 0.0
2017-Jul-17 12:58N 45°26' E 012°18'0 0.0
2017-Jul-17 12:28N 45°26' E 012°18'0 0.0
2017-Jul-17 11:58N 45°26' E 012°18'0 0.0
2017-Jul-17 11:28N 45°26' E 012°18'0 0.0
2017-Jul-17 10:58N 45°26' E 012°18'0 0.0
2017-Jul-17 10:30N 45°26' E 012°18'0 0.0
2017-Jul-17 10:00N 45°26' E 012°18'0 0.0
2017-Jul-17 09:30N 45°26' E 012°18'0 0.0
2017-Jul-17 09:00N 45°26' E 012°18'0 0.0
2017-Jul-17 08:30N 45°26' E 012°18'0 0.0
2017-Jul-17 07:59N 45°26' E 012°18'0 0.0
2017-Jul-17 07:29N 45°26' E 012°18'0 0.0
2017-Jul-17 06:59N 45°26' E 012°18'0 0.0
2017-Jul-17 06:29N 45°26' E 012°18'0 0.0
2017-Jul-17 05:58N 45°26' E 012°18'0 0.0
2017-Jul-17 05:28N 45°26' E 012°18'0 0.0
2017-Jul-17 04:58N 45°26' E 012°18'0 0.0
2017-Jul-17 04:31N 45°26' E 012°18'1 1.9
2017-Jul-17 04:00N 45°26' E 012°19'2 4.9
2017-Jul-17 03:31N 45°26' E 012°23'5 9.6
2017-Jul-17 03:00N 45°24' E 012°29'612.1
2017-Jul-17 02:30N 45°24' E 012°38'5 8.9
2017-Jul-17 02:00N 45°24' E 012°44'4 7.4
2017-Jul-17 01:30N 45°25' E 012°49'3 6.4
2017-Jul-17 01:00N 45°22' E 012°52'4 7.5
2017-Jul-17 00:30N 45°19' E 012°52'4 7.7
2017-Jul-17 00:00N 45°15' E 012°52'4 7.0
2017-Jul-16 23:30N 45°12' E 012°49'4 7.2
2017-Jul-16 23:00N 45°10' E 012°45'3 6.9
2017-Jul-16 22:30N 45°08' E 012°41'3 6.8
2017-Jul-16 22:00N 45°09' E 012°36'3 7.0
2017-Jul-16 21:30N 45°11' E 012°32'3 6.7
2017-Jul-16 21:00N 45°14' E 012°30'3 7.0
2017-Jul-16 20:30N 45°17' E 012°27'3 7.0
2017-Jul-16 20:00N 45°19' E 012°23'5 9.9
2017-Jul-16 19:30N 45°21' E 012°17'4 8.2
2017-Jul-16 19:01N 45°25' E 012°16'2 4.5
2017-Jul-16 18:30N 45°27' E 012°15'0 0.9
2017-Jul-16 17:58N 45°27' E 012°15'0 0.0
2017-Jul-16 17:28N 45°27' E 012°15'0 0.0
2017-Jul-16 17:00N 45°27' E 012°15'0 0.0
2017-Jul-16 16:27N 45°27' E 012°15'0 0.0
2017-Jul-16 16:00N 45°27' E 012°15'0 0.0
2017-Jul-16 15:30N 45°27' E 012°15'0 0.0
2017-Jul-16 15:00N 45°27' E 012°15'0 0.0
2017-Jul-16 14:29N 45°27' E 012°15'0 0.0
2017-Jul-16 13:56N 45°27' E 012°15'0 0.0
2017-Jul-16 13:29N 45°27' E 012°15'0 0.0
2017-Jul-16 12:56N 45°27' E 012°15'0 0.0
2017-Jul-16 12:29N 45°27' E 012°15'0 0.0
2017-Jul-16 11:58N 45°27' E 012°15'0 0.0
2017-Jul-16 11:28N 45°27' E 012°15'0 0.0
2017-Jul-16 10:55N 45°27' E 012°15'0 0.0
2017-Jul-16 10:25N 45°27' E 012°15'0 0.0
2017-Jul-16 10:00N 45°27' E 012°15'0 0.0
2017-Jul-16 09:24N 45°27' E 012°15'0 0.0
2017-Jul-16 09:00N 45°27' E 012°15'0 0.0
2017-Jul-16 08:30N 45°27' E 012°15'0 0.0
2017-Jul-16 08:00N 45°27' E 012°15'0 0.0
2017-Jul-16 07:29N 45°27' E 012°15'0 0.0
2017-Jul-16 06:59N 45°27' E 012°15'0 0.0
2017-Jul-16 06:29N 45°27' E 012°15'0 0.0
2017-Jul-16 05:59N 45°27' E 012°15'0 0.0
2017-Jul-16 05:29N 45°27' E 012°15'0 0.0
2017-Jul-16 04:58N 45°27' E 012°15'0 0.0
2017-Jul-16 04:28N 45°27' E 012°15'0 0.0
2017-Jul-16 03:58N 45°27' E 012°15'0 0.0
2017-Jul-16 03:28N 45°27' E 012°15'0 0.0
2017-Jul-16 03:00N 45°27' E 012°15'0 0.0
2017-Jul-16 02:30N 45°27' E 012°15'0 0.0
2017-Jul-16 02:00N 45°27' E 012°15'0 0.0
2017-Jul-16 01:27N 45°27' E 012°15'0 0.0
2017-Jul-16 01:00N 45°27' E 012°15'0 0.0
2017-Jul-16 00:26N 45°27' E 012°15'0 0.0
2017-Jul-15 23:59N 45°27' E 012°15'0 0.0
2017-Jul-15 23:29N 45°27' E 012°15'0 0.0
2017-Jul-15 22:59N 45°27' E 012°15'0 0.0
2017-Jul-15 22:25N 45°27' E 012°15'0 0.0
2017-Jul-15 21:58N 45°27' E 012°15'0 0.0
2017-Jul-15 21:28N 45°27' E 012°15'0 0.0
2017-Jul-15 20:58N 45°27' E 012°15'0 0.0
2017-Jul-15 20:28N 45°27' E 012°15'0 0.0
2017-Jul-15 20:00N 45°27' E 012°15'0 0.0
2017-Jul-15 19:30N 45°27' E 012°15'0 0.0
2017-Jul-15 19:00N 45°27' E 012°15'0 0.0
2017-Jul-15 18:30N 45°27' E 012°15'0 0.0
2017-Jul-15 18:00N 45°27' E 012°15'0 0.0
2017-Jul-15 17:29N 45°27' E 012°15'0 0.0
2017-Jul-15 16:59N 45°27' E 012°15'0 0.0
2017-Jul-15 16:26N 45°27' E 012°15'0 0.0
2017-Jul-15 15:53N 45°27' E 012°15'0 0.0
2017-Jul-15 15:28N 45°27' E 012°15'0 0.0
2017-Jul-15 14:58N 45°27' E 012°15'0 0.0
2017-Jul-15 14:00N 45°27' E 012°15'1 1.8
2017-Jul-15 13:30N 45°26' E 012°16'4 8.2
2017-Jul-15 13:01N 45°22' E 012°15'4 8.8
2017-Jul-15 12:31N 45°20' E 012°21'3 6.8
2017-Jul-15 12:01N 45°19' E 012°25'4 8.7
2017-Jul-15 11:30N 45°18' E 012°31'3 5.7
2017-Jul-15 11:01N 45°17' E 012°35'2 3.9
2017-Jul-15 10:30N 45°19' E 012°36'2 4.9
2017-Jul-15 10:00N 45°22' E 012°35'4 8.9
2017-Jul-15 09:30N 45°26' E 012°37'1 2.8
2017-Jul-15 09:00N 45°25' E 012°36'3 5.4
2017-Jul-15 08:31N 45°24' E 012°32'1 2.0
2017-Jul-15 08:01N 45°25' E 012°32'2 3.3
2017-Jul-15 07:31N 45°25' E 012°30'2 3.4
2017-Jul-15 07:00N 45°24' E 012°32'2 4.7
2017-Jul-15 06:30N 45°25' E 012°29'2 4.4
2017-Jul-15 06:00N 45°24' E 012°32'2 3.3
2017-Jul-15 05:31N 45°24' E 012°30'1 1.4
2017-Jul-15 05:01N 45°25' E 012°30'1 1.1
2017-Jul-15 04:31N 45°24' E 012°31'1 1.6
2017-Jul-15 04:01N 45°24' E 012°30'5 9.3
2017-Jul-15 03:30N 45°20' E 012°32'612.3
2017-Jul-15 02:59N 45°14' E 012°37'713.7
2017-Jul-15 02:30N 45°10' E 012°44'713.6
2017-Jul-15 02:00N 45°07' E 012°53'713.6
2017-Jul-15 01:30N 45°04' E 013°01'713.4
2017-Jul-15 01:00N 45°01' E 013°10'713.8
2017-Jul-15 00:30N 44°58' E 013°19'613.0
2017-Jul-15 00:00N 44°53' E 013°25'4 8.0
2017-Jul-14 23:30N 44°50' E 013°28'4 7.9
2017-Jul-14 23:00N 44°47' E 013°31'4 7.8
2017-Jul-14 22:30N 44°43' E 013°34'611.7
2017-Jul-14 22:00N 44°38' E 013°39'613.0
2017-Jul-14 21:30N 44°35' E 013°46'713.4
2017-Jul-14 21:00N 44°33' E 013°55'913.6
2017-Jul-14 20:20N 44°30' E 014°07'  

Dump ship's entire track history